Terminal Aerodrome Forecast
Issued by NWS

Home | Current Version | Previous Version | Graphics & Text | Print | Product List | Glossary On
Versions: 1 2 3 4 5 6 7 8 9 10 11 12 13 14 15 16 17 18 19 20 21 22 23
000
FTUS43 KABR 192339 AAA
TAFPIR
TAF AMD
KPIR 192339Z 2000/2024 30023G29KT P6SM SCT050 BKN060 OVC250
     FM200200 31013KT P6SM BKN100
     FM200500 31014KT P6SM VCSH BKN150
     FM200600 31014KT P6SM BKN150
     FM200900 28009KT P6SM FEW250
     FM201800 25013KT P6SM SKC
     FM202300 19010KT P6SM SKC=

USA.gov is the U.S. government's official web portal to all federal, state and local government web resources and services.